sensor_id;sensor_type;location;lat;lon;timestamp;temperature;humidity
63094;DHT22;49183;51.380;0.098;2023-10-09T00:00:08;13.50;87.80
63094;DHT22;49183;51.380;0.098;2023-10-09T00:02:55;13.60;87.70
63094;DHT22;49183;51.380;0.098;2023-10-09T00:05:23;13.70;87.60
63094;DHT22;49183;51.380;0.098;2023-10-09T00:07:51;13.70;87.50
63094;DHT22;49183;51.380;0.098;2023-10-09T00:10:23;13.70;87.50
63094;DHT22;49183;51.380;0.098;2023-10-09T00:13:02;13.60;87.50
63094;DHT22;49183;51.380;0.098;2023-10-09T00:15:32;13.50;87.60
63094;DHT22;49183;51.380;0.098;2023-10-09T00:18:01;13.40;87.70
63094;DHT22;49183;51.380;0.098;2023-10-09T00:20:36;13.40;87.80
63094;DHT22;49183;51.380;0.098;2023-10-09T00:23:07;13.40;87.90
63094;DHT22;49183;51.380;0.098;2023-10-09T00:25:49;13.30;88.00
63094;DHT22;49183;51.380;0.098;2023-10-09T00:28:39;13.30;88.10
63094;DHT22;49183;51.380;0.098;2023-10-09T00:31:19;13.30;88.20
63094;DHT22;49183;51.380;0.098;2023-10-09T00:34:01;13.30;88.20
63094;DHT22;49183;51.380;0.098;2023-10-09T00:36:42;13.30;88.20
63094;DHT22;49183;51.380;0.098;2023-10-09T00:39:19;13.20;88.30
63094;DHT22;49183;51.380;0.098;2023-10-09T00:42:06;13.20;88.40
63094;DHT22;49183;51.380;0.098;2023-10-09T00:44:34;13.20;88.40
63094;DHT22;49183;51.380;0.098;2023-10-09T00:47:07;13.20;88.40
63094;DHT22;49183;51.380;0.098;2023-10-09T00:49:54;13.20;88.50
63094;DHT22;49183;51.380;0.098;2023-10-09T00:52:39;13.20;88.50
63094;DHT22;49183;51.380;0.098;2023-10-09T00:55:12;13.10;88.50
63094;DHT22;49183;51.380;0.098;2023-10-09T00:57:50;13.10;88.60
63094;DHT22;49183;51.380;0.098;2023-10-09T01:00:28;13.10;88.40
63094;DHT22;49183;51.380;0.098;2023-10-09T01:03:16;13.10;88.40
63094;DHT22;49183;51.380;0.098;2023-10-09T01:05:55;13.10;88.50
63094;DHT22;49183;51.380;0.098;2023-10-09T01:08:31;13.00;88.50
63094;DHT22;49183;51.380;0.098;2023-10-09T01:11:13;13.00;88.60
63094;DHT22;49183;51.380;0.098;2023-10-09T01:13:48;13.00;88.60
63094;DHT22;49183;51.380;0.098;2023-10-09T01:16:17;12.90;88.70
63094;DHT22;49183;51.380;0.098;2023-10-09T01:18:46;12.90;88.80
63094;DHT22;49183;51.380;0.098;2023-10-09T01:21:18;12.90;88.90
63094;DHT22;49183;51.380;0.098;2023-10-09T01:23:53;12.90;88.90
63094;DHT22;49183;51.380;0.098;2023-10-09T01:26:26;12.90;88.90
63094;DHT22;49183;51.380;0.098;2023-10-09T01:29:00;13.00;88.90
63094;DHT22;49183;51.380;0.098;2023-10-09T01:31:29;13.00;88.90
63094;DHT22;49183;51.380;0.098;2023-10-09T01:34:05;13.00;88.80
63094;DHT22;49183;51.380;0.098;2023-10-09T01:36:41;13.00;88.80
63094;DHT22;49183;51.380;0.098;2023-10-09T01:39:09;13.00;88.80
63094;DHT22;49183;51.380;0.098;2023-10-09T01:41:50;12.90;88.80
63094;DHT22;49183;51.380;0.098;2023-10-09T01:44:27;13.00;88.80
63094;DHT22;49183;51.380;0.098;2023-10-09T01:47:02;12.90;88.80
63094;DHT22;49183;51.380;0.098;2023-10-09T01:49:35;12.90;88.80
63094;DHT22;49183;51.380;0.098;2023-10-09T01:52:05;12.80;88.80
63094;DHT22;49183;51.380;0.098;2023-10-09T01:54:37;12.80;88.90
63094;DHT22;49183;51.380;0.098;2023-10-09T01:57:07;12.70;89.00
63094;DHT22;49183;51.380;0.098;2023-10-09T01:59:43;12.70;89.10
63094;DHT22;49183;51.380;0.098;2023-10-09T02:02:17;12.60;89.20
63094;DHT22;49183;51.380;0.098;2023-10-09T02:05:01;12.60;89.20
63094;DHT22;49183;51.380;0.098;2023-10-09T02:07:35;12.60;89.30
63094;DHT22;49183;51.380;0.098;2023-10-09T02:10:13;12.50;89.30
63094;DHT22;49183;51.380;0.098;2023-10-09T02:13:02;12.50;89.30
63094;DHT22;49183;51.380;0.098;2023-10-09T02:15:45;12.50;89.30
63094;DHT22;49183;51.380;0.098;2023-10-09T02:18:20;12.50;89.40
63094;DHT22;49183;51.380;0.098;2023-10-09T02:21:10;12.50;89.40
63094;DHT22;49183;51.380;0.098;2023-10-09T02:23:39;12.50;89.50
63094;DHT22;49183;51.380;0.098;2023-10-09T02:26:15;12.50;89.40
63094;DHT22;49183;51.380;0.098;2023-10-09T02:28:55;12.50;89.40
63094;DHT22;49183;51.380;0.098;2023-10-09T02:31:28;12.50;89.40
63094;DHT22;49183;51.380;0.098;2023-10-09T02:34:04;12.50;89.50
63094;DHT22;49183;51.380;0.098;2023-10-09T02:36:33;12.40;89.40
63094;DHT22;49183;51.380;0.098;2023-10-09T02:39:17;12.40;89.50
63094;DHT22;49183;51.380;0.098;2023-10-09T02:41:53;12.40;89.60
63094;DHT22;49183;51.380;0.098;2023-10-09T02:44:29;12.40;89.60
63094;DHT22;49183;51.380;0.098;2023-10-09T02:47:07;12.40;89.60
63094;DHT22;49183;51.380;0.098;2023-10-09T02:49:46;12.40;89.60
63094;DHT22;49183;51.380;0.098;2023-10-09T02:52:16;12.50;89.70
63094;DHT22;49183;51.380;0.098;2023-10-09T02:54:52;12.40;89.60
63094;DHT22;49183;51.380;0.098;2023-10-09T02:57:27;12.50;89.60
63094;DHT22;49183;51.380;0.098;2023-10-09T03:00:04;12.50;89.30
63094;DHT22;49183;51.380;0.098;2023-10-09T03:02:37;12.50;89.30
63094;DHT22;49183;51.380;0.098;2023-10-09T03:05:08;12.40;89.40
63094;DHT22;49183;51.380;0.098;2023-10-09T03:07:40;12.40;89.50
63094;DHT22;49183;51.380;0.098;2023-10-09T03:10:08;12.50;89.60
63094;DHT22;49183;51.380;0.098;2023-10-09T03:12:37;12.50;89.60
63094;DHT22;49183;51.380;0.098;2023-10-09T03:15:07;12.60;89.60
63094;DHT22;49183;51.380;0.098;2023-10-09T03:17:36;12.70;89.60
63094;DHT22;49183;51.380;0.098;2023-10-09T03:20:05;12.70;89.50
63094;DHT22;49183;51.380;0.098;2023-10-09T03:22:40;12.80;89.40
63094;DHT22;49183;51.380;0.098;2023-10-09T03:25:10;12.80;89.40
63094;DHT22;49183;51.380;0.098;2023-10-09T03:27:41;12.80;89.40
63094;DHT22;49183;51.380;0.098;2023-10-09T03:30:16;12.80;89.40
63094;DHT22;49183;51.380;0.098;2023-10-09T03:32:52;12.90;89.30
63094;DHT22;49183;51.380;0.098;2023-10-09T03:35:21;12.80;89.30
63094;DHT22;49183;51.380;0.098;2023-10-09T03:37:56;12.80;89.30
63094;DHT22;49183;51.380;0.098;2023-10-09T03:40:25;12.80;89.40
63094;DHT22;49183;51.380;0.098;2023-10-09T03:42:53;12.70;89.40
63094;DHT22;49183;51.380;0.098;2023-10-09T03:45:20;12.70;89.60
63094;DHT22;49183;51.380;0.098;2023-10-09T03:47:56;12.70;89.70
63094;DHT22;49183;51.380;0.098;2023-10-09T03:50:37;12.70;89.70
63094;DHT22;49183;51.380;0.098;2023-10-09T03:53:06;12.70;89.60
63094;DHT22;49183;51.380;0.098;2023-10-09T03:55:35;12.70;89.60
63094;DHT22;49183;51.380;0.098;2023-10-09T03:58:06;12.60;89.60
63094;DHT22;49183;51.380;0.098;2023-10-09T04:00:34;12.70;89.70
63094;DHT22;49183;51.380;0.098;2023-10-09T04:03:13;12.60;89.80
63094;DHT22;49183;51.380;0.098;2023-10-09T04:05:43;12.60;89.80
63094;DHT22;49183;51.380;0.098;2023-10-09T04:08:12;12.60;89.70
63094;DHT22;49183;51.380;0.098;2023-10-09T04:10:47;12.60;89.80
63094;DHT22;49183;51.380;0.098;2023-10-09T04:13:25;12.60;89.80
63094;DHT22;49183;51.380;0.098;2023-10-09T04:16:02;12.60;89.90
63094;DHT22;49183;51.380;0.098;2023-10-09T04:18:49;12.60;89.90
63094;DHT22;49183;51.380;0.098;2023-10-09T04:21:17;12.60;90.00
63094;DHT22;49183;51.380;0.098;2023-10-09T04:23:55;12.60;90.00
63094;DHT22;49183;51.380;0.098;2023-10-09T04:26:43;12.70;89.90
63094;DHT22;49183;51.380;0.098;2023-10-09T04:29:16;12.70;89.90
63094;DHT22;49183;51.380;0.098;2023-10-09T04:32:03;12.70;89.90
63094;DHT22;49183;51.380;0.098;2023-10-09T04:34:35;12.70;89.90
63094;DHT22;49183;51.380;0.098;2023-10-09T04:37:04;12.70;90.00
63094;DHT22;49183;51.380;0.098;2023-10-09T04:39:41;12.70;90.00
63094;DHT22;49183;51.380;0.098;2023-10-09T04:42:16;12.70;90.00
63094;DHT22;49183;51.380;0.098;2023-10-09T04:44:54;12.70;90.00
63094;DHT22;49183;51.380;0.098;2023-10-09T04:47:44;12.70;90.10
63094;DHT22;49183;51.380;0.098;2023-10-09T04:50:26;12.70;90.00
63094;DHT22;49183;51.380;0.098;2023-10-09T04:52:57;12.70;90.00
63094;DHT22;49183;51.380;0.098;2023-10-09T04:55:41;12.70;90.00
63094;DHT22;49183;51.380;0.098;2023-10-09T04:58:11;12.70;90.10
63094;DHT22;49183;51.380;0.098;2023-10-09T05:00:55;12.60;90.10
63094;DHT22;49183;51.380;0.098;2023-10-09T05:03:40;12.60;90.20
63094;DHT22;49183;51.380;0.098;2023-10-09T05:06:09;12.60;90.20
63094;DHT22;49183;51.380;0.098;2023-10-09T05:08:49;12.60;90.30
63094;DHT22;49183;51.380;0.098;2023-10-09T05:11:17;12.60;90.20
63094;DHT22;49183;51.380;0.098;2023-10-09T05:14:02;12.70;90.20
63094;DHT22;49183;51.380;0.098;2023-10-09T05:16:41;12.60;90.20
63094;DHT22;49183;51.380;0.098;2023-10-09T05:19:22;12.70;90.30
63094;DHT22;49183;51.380;0.098;2023-10-09T05:22:12;12.70;90.30
63094;DHT22;49183;51.380;0.098;2023-10-09T05:25:04;12.70;90.30
63094;DHT22;49183;51.380;0.098;2023-10-09T05:27:43;12.70;90.40
63094;DHT22;49183;51.380;0.098;2023-10-09T05:30:18;12.70;90.40
63094;DHT22;49183;51.380;0.098;2023-10-09T05:32:56;12.70;90.40
63094;DHT22;49183;51.380;0.098;2023-10-09T05:35:27;12.80;90.40
63094;DHT22;49183;51.380;0.098;2023-10-09T05:38:08;12.80;90.40
63094;DHT22;49183;51.380;0.098;2023-10-09T05:40:42;12.80;90.50
63094;DHT22;49183;51.380;0.098;2023-10-09T05:43:13;12.80;90.50
63094;DHT22;49183;51.380;0.098;2023-10-09T05:46:01;12.80;90.50
63094;DHT22;49183;51.380;0.098;2023-10-09T05:48:43;12.80;90.50
63094;DHT22;49183;51.380;0.098;2023-10-09T05:51:25;12.80;90.50
63094;DHT22;49183;51.380;0.098;2023-10-09T05:54:13;12.80;90.50
63094;DHT22;49183;51.380;0.098;2023-10-09T05:56:59;12.80;90.60
63094;DHT22;49183;51.380;0.098;2023-10-09T05:59:47;12.80;90.50
63094;DHT22;49183;51.380;0.098;2023-10-09T06:02:38;12.80;90.50
63094;DHT22;49183;51.380;0.098;2023-10-09T06:05:29;12.80;90.60
63094;DHT22;49183;51.380;0.098;2023-10-09T06:08:09;12.80;90.50
63094;DHT22;49183;51.380;0.098;2023-10-09T06:10:40;12.80;90.60
63094;DHT22;49183;51.380;0.098;2023-10-09T06:13:09;12.80;90.60
63094;DHT22;49183;51.380;0.098;2023-10-09T06:15:57;12.80;90.70
63094;DHT22;49183;51.380;0.098;2023-10-09T06:18:48;12.80;90.70
63094;DHT22;49183;51.380;0.098;2023-10-09T06:21:36;12.80;90.70
63094;DHT22;49183;51.380;0.098;2023-10-09T06:24:07;12.80;90.70
63094;DHT22;49183;51.380;0.098;2023-10-09T06:26:46;12.70;90.70
63094;DHT22;49183;51.380;0.098;2023-10-09T06:29:27;12.80;90.80
63094;DHT22;49183;51.380;0.098;2023-10-09T06:32:06;12.70;90.80
63094;DHT22;49183;51.380;0.098;2023-10-09T06:34:48;12.70;90.80
63094;DHT22;49183;51.380;0.098;2023-10-09T06:37:45;12.80;90.80
63094;DHT22;49183;51.380;0.098;2023-10-09T06:40:33;12.80;90.90
63094;DHT22;49183;51.380;0.098;2023-10-09T06:43:23;12.80;90.80
63094;DHT22;49183;51.380;0.098;2023-10-09T06:45:52;12.90;90.80
63094;DHT22;49183;51.380;0.098;2023-10-09T06:48:26;13.00;90.80
63094;DHT22;49183;51.380;0.098;2023-10-09T06:51:10;13.00;90.70
63094;DHT22;49183;51.380;0.098;2023-10-09T06:53:55;13.10;90.70
63094;DHT22;49183;51.380;0.098;2023-10-09T06:56:25;13.10;90.70
63094;DHT22;49183;51.380;0.098;2023-10-09T06:59:00;13.20;90.70
63094;DHT22;49183;51.380;0.098;2023-10-09T07:01:31;13.30;90.70
63094;DHT22;49183;51.380;0.098;2023-10-09T07:04:14;13.30;90.70
63094;DHT22;49183;51.380;0.098;2023-10-09T07:07:01;13.30;90.70
63094;DHT22;49183;51.380;0.098;2023-10-09T07:09:35;13.30;90.60
63094;DHT22;49183;51.380;0.098;2023-10-09T07:12:32;13.40;90.70
63094;DHT22;49183;51.380;0.098;2023-10-09T07:15:01;13.40;90.60
63094;DHT22;49183;51.380;0.098;2023-10-09T07:17:50;13.40;90.60
63094;DHT22;49183;51.380;0.098;2023-10-09T07:20:20;13.50;90.60
63094;DHT22;49183;51.380;0.098;2023-10-09T07:23:04;13.50;90.60
63094;DHT22;49183;51.380;0.098;2023-10-09T07:25:44;13.50;90.60
63094;DHT22;49183;51.380;0.098;2023-10-09T07:28:24;13.60;90.60
63094;DHT22;49183;51.380;0.098;2023-10-09T07:31:05;13.60;90.60
63094;DHT22;49183;51.380;0.098;2023-10-09T07:33:37;13.70;90.60
63094;DHT22;49183;51.380;0.098;2023-10-09T07:36:40;13.70;90.50
63094;DHT22;49183;51.380;0.098;2023-10-09T07:39:15;13.70;90.50
63094;DHT22;49183;51.380;0.098;2023-10-09T07:41:45;13.80;90.50
63094;DHT22;49183;51.380;0.098;2023-10-09T07:44:23;13.80;90.50
63094;DHT22;49183;51.380;0.098;2023-10-09T07:47:06;13.80;90.50
63094;DHT22;49183;51.380;0.098;2023-10-09T07:50:13;13.90;90.40
63094;DHT22;49183;51.380;0.098;2023-10-09T07:52:49;13.90;90.40
63094;DHT22;49183;51.380;0.098;2023-10-09T07:55:17;14.00;90.40
63094;DHT22;49183;51.380;0.098;2023-10-09T07:58:06;14.00;90.30
63094;DHT22;49183;51.380;0.098;2023-10-09T08:00:39;14.10;90.20
63094;DHT22;49183;51.380;0.098;2023-10-09T08:03:26;14.20;90.20
63094;DHT22;49183;51.380;0.098;2023-10-09T08:06:03;14.30;90.10
63094;DHT22;49183;51.380;0.098;2023-10-09T08:08:49;14.30;90.10
63094;DHT22;49183;51.380;0.098;2023-10-09T08:11:36;14.40;90.10
63094;DHT22;49183;51.380;0.098;2023-10-09T08:14:14;14.50;90.00
63094;DHT22;49183;51.380;0.098;2023-10-09T08:17:00;14.60;89.90
63094;DHT22;49183;51.380;0.098;2023-10-09T08:19:49;14.80;89.80
63094;DHT22;49183;51.380;0.098;2023-10-09T08:22:39;14.80;89.70
63094;DHT22;49183;51.380;0.098;2023-10-09T08:25:20;14.90;89.50
63094;DHT22;49183;51.380;0.098;2023-10-09T08:28:01;15.00;89.40
63094;DHT22;49183;51.380;0.098;2023-10-09T08:30:45;15.10;89.30
63094;DHT22;49183;51.380;0.098;2023-10-09T08:33:31;15.20;89.10
63094;DHT22;49183;51.380;0.098;2023-10-09T08:36:11;15.30;89.00
63094;DHT22;49183;51.380;0.098;2023-10-09T08:38:43;15.30;88.80
63094;DHT22;49183;51.380;0.098;2023-10-09T08:41:13;15.40;88.70
63094;DHT22;49183;51.380;0.098;2023-10-09T08:43:53;15.50;88.60
63094;DHT22;49183;51.380;0.098;2023-10-09T08:46:24;15.50;88.50
63094;DHT22;49183;51.380;0.098;2023-10-09T08:48:59;15.70;88.40
63094;DHT22;49183;51.380;0.098;2023-10-09T08:51:28;15.80;88.30
63094;DHT22;49183;51.380;0.098;2023-10-09T08:53:57;15.80;88.10
63094;DHT22;49183;51.380;0.098;2023-10-09T08:56:25;15.90;87.90
63094;DHT22;49183;51.380;0.098;2023-10-09T08:58:58;15.90;87.80
63094;DHT22;49183;51.380;0.098;2023-10-09T09:01:27;16.00;87.70
63094;DHT22;49183;51.380;0.098;2023-10-09T09:04:00;16.10;87.70
63094;DHT22;49183;51.380;0.098;2023-10-09T09:06:39;16.20;87.50
63094;DHT22;49183;51.380;0.098;2023-10-09T09:09:12;16.20;87.40
63094;DHT22;49183;51.380;0.098;2023-10-09T09:11:43;16.30;87.30
63094;DHT22;49183;51.380;0.098;2023-10-09T09:14:16;16.40;87.20
63094;DHT22;49183;51.380;0.098;2023-10-09T09:16:50;16.50;87.10
63094;DHT22;49183;51.380;0.098;2023-10-09T09:19:31;16.60;87.00
63094;DHT22;49183;51.380;0.098;2023-10-09T09:22:06;16.70;86.90
63094;DHT22;49183;51.380;0.098;2023-10-09T09:24:40;16.80;86.80
63094;DHT22;49183;51.380;0.098;2023-10-09T09:27:14;16.80;86.70
63094;DHT22;49183;51.380;0.098;2023-10-09T09:29:59;16.90;86.50
63094;DHT22;49183;51.380;0.098;2023-10-09T09:32:36;17.10;86.40
63094;DHT22;49183;51.380;0.098;2023-10-09T09:35:11;17.20;86.30
63094;DHT22;49183;51.380;0.098;2023-10-09T09:37:52;17.50;86.10
63094;DHT22;49183;51.380;0.098;2023-10-09T09:40:22;17.80;85.60
63094;DHT22;49183;51.380;0.098;2023-10-09T09:43:02;17.90;85.00
63094;DHT22;49183;51.380;0.098;2023-10-09T09:45:38;18.10;84.70
63094;DHT22;49183;51.380;0.098;2023-10-09T09:48:14;18.20;84.40
63094;DHT22;49183;51.380;0.098;2023-10-09T09:50:45;18.40;84.10
63094;DHT22;49183;51.380;0.098;2023-10-09T09:53:15;18.50;83.60
63094;DHT22;49183;51.380;0.098;2023-10-09T09:55:51;18.70;83.40
63094;DHT22;49183;51.380;0.098;2023-10-09T09:58:25;19.00;83.20
63094;DHT22;49183;51.380;0.098;2023-10-09T10:01:03;19.20;82.90
63094;DHT22;49183;51.380;0.098;2023-10-09T10:04:06;19.40;82.40
63094;DHT22;49183;51.380;0.098;2023-10-09T10:06:42;19.50;82.00
63094;DHT22;49183;51.380;0.098;2023-10-09T10:09:38;19.70;81.70
63094;DHT22;49183;51.380;0.098;2023-10-09T10:12:11;19.80;81.20
63094;DHT22;49183;51.380;0.098;2023-10-09T10:23:43;20.10;80.30
63094;DHT22;49183;51.380;0.098;2023-10-09T10:26:17;20.20;80.20
63094;DHT22;49183;51.380;0.098;2023-10-09T10:29:21;20.30;79.80
63094;DHT22;49183;51.380;0.098;2023-10-09T10:31:56;20.30;79.30
63094;DHT22;49183;51.380;0.098;2023-10-09T10:34:25;20.30;79.10
63094;DHT22;49183;51.380;0.098;2023-10-09T10:36:54;20.20;79.00
63094;DHT22;49183;51.380;0.098;2023-10-09T10:39:28;20.00;79.00
63094;DHT22;49183;51.380;0.098;2023-10-09T10:42:14;19.90;79.20
63094;DHT22;49183;51.380;0.098;2023-10-09T10:45:02;19.80;79.30
63094;DHT22;49183;51.380;0.098;2023-10-09T10:47:43;19.80;79.50
63094;DHT22;49183;51.380;0.098;2023-10-09T10:50:17;19.70;79.80
63094;DHT22;49183;51.380;0.098;2023-10-09T10:53:15;19.60;80.00
63094;DHT22;49183;51.380;0.098;2023-10-09T10:56:01;19.70;80.10
63094;DHT22;49183;51.380;0.098;2023-10-09T10:58:42;19.80;79.90
63094;DHT22;49183;51.380;0.098;2023-10-09T11:01:31;19.80;79.80
63094;DHT22;49183;51.380;0.098;2023-10-09T11:04:23;19.80;79.80
63094;DHT22;49183;51.380;0.098;2023-10-09T11:06:59;19.80;79.70
63094;DHT22;49183;51.380;0.098;2023-10-09T11:09:46;19.80;79.60
63094;DHT22;49183;51.380;0.098;2023-10-09T11:15:34;19.60;79.90
63094;DHT22;49183;51.380;0.098;2023-10-09T11:18:14;19.40;80.30
63094;DHT22;49183;51.380;0.098;2023-10-09T11:20:56;19.50;80.80
63094;DHT22;49183;51.380;0.098;2023-10-09T11:23:48;19.60;81.10
63094;DHT22;49183;51.380;0.098;2023-10-09T11:26:20;19.50;80.90
63094;DHT22;49183;51.380;0.098;2023-10-09T11:32:22;19.60;80.90
63094;DHT22;49183;51.380;0.098;2023-10-09T11:35:14;19.60;80.80
63094;DHT22;49183;51.380;0.098;2023-10-09T11:37:56;19.60;81.10
63094;DHT22;49183;51.380;0.098;2023-10-09T11:40:32;19.60;81.00
63094;DHT22;49183;51.380;0.098;2023-10-09T11:43:18;19.60;81.00
63094;DHT22;49183;51.380;0.098;2023-10-09T11:45:52;19.70;81.00
63094;DHT22;49183;51.380;0.098;2023-10-09T11:48:24;19.70;81.10
63094;DHT22;49183;51.380;0.098;2023-10-09T11:51:15;19.80;81.00
63094;DHT22;49183;51.380;0.098;2023-10-09T11:53:44;19.80;81.00
63094;DHT22;49183;51.380;0.098;2023-10-09T11:56:17;19.90;80.80
63094;DHT22;49183;51.380;0.098;2023-10-09T11:58:48;19.90;80.60
63094;DHT22;49183;51.380;0.098;2023-10-09T12:01:19;19.90;80.60
63094;DHT22;49183;51.380;0.098;2023-10-09T12:03:51;19.90;80.50
63094;DHT22;49183;51.380;0.098;2023-10-09T12:06:21;19.90;80.30
63094;DHT22;49183;51.380;0.098;2023-10-09T12:08:58;19.90;80.10
63094;DHT22;49183;51.380;0.098;2023-10-09T12:11:26;19.90;80.30
63094;DHT22;49183;51.380;0.098;2023-10-09T12:13:57;20.00;80.40
63094;DHT22;49183;51.380;0.098;2023-10-09T12:16:28;20.10;80.10
63094;DHT22;49183;51.380;0.098;2023-10-09T12:19:01;20.10;79.90
63094;DHT22;49183;51.380;0.098;2023-10-09T12:21:31;20.10;79.90
63094;DHT22;49183;51.380;0.098;2023-10-09T12:23:59;20.30;80.10
63094;DHT22;49183;51.380;0.098;2023-10-09T12:26:29;20.30;80.00
63094;DHT22;49183;51.380;0.098;2023-10-09T12:29:03;20.50;79.70
63094;DHT22;49183;51.380;0.098;2023-10-09T12:31:39;20.50;79.40
63094;DHT22;49183;51.380;0.098;2023-10-09T12:34:08;20.50;79.20
63094;DHT22;49183;51.380;0.098;2023-10-09T12:36:38;20.60;79.40
63094;DHT22;49183;51.380;0.098;2023-10-09T12:39:07;20.70;79.60
63094;DHT22;49183;51.380;0.098;2023-10-09T12:41:46;20.80;79.40
63094;DHT22;49183;51.380;0.098;2023-10-09T12:44:15;20.80;79.40
63094;DHT22;49183;51.380;0.098;2023-10-09T12:46:47;20.80;79.20
63094;DHT22;49183;51.380;0.098;2023-10-09T12:49:22;20.90;78.90
63094;DHT22;49183;51.380;0.098;2023-10-09T12:51:53;21.00;78.90
63094;DHT22;49183;51.380;0.098;2023-10-09T12:54:22;21.00;78.90
63094;DHT22;49183;51.380;0.098;2023-10-09T12:56:56;20.90;79.00
63094;DHT22;49183;51.380;0.098;2023-10-09T12:59:25;21.00;79.20
63094;DHT22;49183;51.380;0.098;2023-10-09T13:01:54;21.00;78.90
63094;DHT22;49183;51.380;0.098;2023-10-09T13:04:26;20.90;78.60
63094;DHT22;49183;51.380;0.098;2023-10-09T13:07:00;20.90;79.00
63094;DHT22;49183;51.380;0.098;2023-10-09T13:09:34;21.00;79.20
63094;DHT22;49183;51.380;0.098;2023-10-09T13:12:04;21.20;78.80
63094;DHT22;49183;51.380;0.098;2023-10-09T13:14:32;21.20;78.60
63094;DHT22;49183;51.380;0.098;2023-10-09T13:17:03;21.20;78.30
63094;DHT22;49183;51.380;0.098;2023-10-09T13:19:39;21.20;78.30
63094;DHT22;49183;51.380;0.098;2023-10-09T13:22:07;21.20;78.40
63094;DHT22;49183;51.380;0.098;2023-10-09T13:24:41;21.30;78.40
63094;DHT22;49183;51.380;0.098;2023-10-09T13:27:09;21.30;78.10
63094;DHT22;49183;51.380;0.098;2023-10-09T13:29:38;21.30;78.20
63094;DHT22;49183;51.380;0.098;2023-10-09T13:32:08;21.50;78.20
63094;DHT22;49183;51.380;0.098;2023-10-09T13:34:44;21.50;77.70
63094;DHT22;49183;51.380;0.098;2023-10-09T13:37:17;21.50;77.70
63094;DHT22;49183;51.380;0.098;2023-10-09T13:39:50;21.50;77.90
63094;DHT22;49183;51.380;0.098;2023-10-09T13:42:21;21.50;77.40
63094;DHT22;49183;51.380;0.098;2023-10-09T13:44:54;21.50;77.60
63094;DHT22;49183;51.380;0.098;2023-10-09T13:47:22;21.50;77.80
63094;DHT22;49183;51.380;0.098;2023-10-09T13:49:57;21.60;77.60
63094;DHT22;49183;51.380;0.098;2023-10-09T13:52:28;21.60;77.40
63094;DHT22;49183;51.380;0.098;2023-10-09T13:54:56;21.50;77.30
63094;DHT22;49183;51.380;0.098;2023-10-09T13:57:26;21.50;77.50
63094;DHT22;49183;51.380;0.098;2023-10-09T13:59:59;21.40;77.70
63094;DHT22;49183;51.380;0.098;2023-10-09T14:02:28;21.40;77.80
63094;DHT22;49183;51.380;0.098;2023-10-09T14:04:57;21.50;77.70
63094;DHT22;49183;51.380;0.098;2023-10-09T14:07:29;21.50;77.60
63094;DHT22;49183;51.380;0.098;2023-10-09T14:09:57;21.50;77.60
63094;DHT22;49183;51.380;0.098;2023-10-09T14:12:36;21.50;77.50
63094;DHT22;49183;51.380;0.098;2023-10-09T14:15:08;21.50;77.20
63094;DHT22;49183;51.380;0.098;2023-10-09T14:17:39;21.50;77.40
63094;DHT22;49183;51.380;0.098;2023-10-09T14:20:11;21.50;77.40
63094;DHT22;49183;51.380;0.098;2023-10-09T14:23:00;21.50;77.30
63094;DHT22;49183;51.380;0.098;2023-10-09T14:25:42;21.60;77.50
63094;DHT22;49183;51.380;0.098;2023-10-09T14:28:13;21.70;77.30
63094;DHT22;49183;51.380;0.098;2023-10-09T14:30:46;21.80;77.10
63094;DHT22;49183;51.380;0.098;2023-10-09T14:33:22;21.80;76.70
63094;DHT22;49183;51.380;0.098;2023-10-09T14:35:55;21.80;76.80
63094;DHT22;49183;51.380;0.098;2023-10-09T14:38:26;21.70;76.90
63094;DHT22;49183;51.380;0.098;2023-10-09T14:40:59;21.80;76.80
63094;DHT22;49183;51.380;0.098;2023-10-09T14:43:27;21.80;76.50
63094;DHT22;49183;51.380;0.098;2023-10-09T14:45:56;21.70;76.30
63094;DHT22;49183;51.380;0.098;2023-10-09T14:48:25;21.70;76.50
63094;DHT22;49183;51.380;0.098;2023-10-09T14:50:57;21.70;76.70
63094;DHT22;49183;51.380;0.098;2023-10-09T14:53:33;21.70;76.80
63094;DHT22;49183;51.380;0.098;2023-10-09T14:56:02;21.60;76.90
63094;DHT22;49183;51.380;0.098;2023-10-09T14:58:37;21.60;77.10
63094;DHT22;49183;51.380;0.098;2023-10-09T15:01:08;21.60;77.10
63094;DHT22;49183;51.380;0.098;2023-10-09T15:03:43;21.50;77.20
63094;DHT22;49183;51.380;0.098;2023-10-09T15:06:15;21.60;77.20
63094;DHT22;49183;51.380;0.098;2023-10-09T15:08:47;21.70;77.10
63094;DHT22;49183;51.380;0.098;2023-10-09T15:11:21;21.60;76.90
63094;DHT22;49183;51.380;0.098;2023-10-09T15:13:55;21.70;76.90
63094;DHT22;49183;51.380;0.098;2023-10-09T15:16:26;21.60;76.80
63094;DHT22;49183;51.380;0.098;2023-10-09T15:18:56;21.60;76.60
63094;DHT22;49183;51.380;0.098;2023-10-09T15:21:31;21.70;76.60
63094;DHT22;49183;51.380;0.098;2023-10-09T15:24:01;21.80;76.40
63094;DHT22;49183;51.380;0.098;2023-10-09T15:26:29;21.80;76.50
63094;DHT22;49183;51.380;0.098;2023-10-09T15:29:01;21.70;76.60
63094;DHT22;49183;51.380;0.098;2023-10-09T15:31:31;21.60;76.80
63094;DHT22;49183;51.380;0.098;2023-10-09T15:34:01;21.70;76.80
63094;DHT22;49183;51.380;0.098;2023-10-09T15:36:30;21.70;76.80
63094;DHT22;49183;51.380;0.098;2023-10-09T15:39:01;21.70;76.60
63094;DHT22;49183;51.380;0.098;2023-10-09T15:41:31;21.70;76.50
63094;DHT22;49183;51.380;0.098;2023-10-09T15:43:59;21.70;76.40
63094;DHT22;49183;51.380;0.098;2023-10-09T15:46:29;21.80;76.40
63094;DHT22;49183;51.380;0.098;2023-10-09T15:49:02;21.70;76.50
63094;DHT22;49183;51.380;0.098;2023-10-09T15:51:30;21.70;76.80
63094;DHT22;49183;51.380;0.098;2023-10-09T15:54:00;21.60;76.90
63094;DHT22;49183;51.380;0.098;2023-10-09T15:56:29;21.60;76.80
63094;DHT22;49183;51.380;0.098;2023-10-09T15:58:57;21.50;76.80
63094;DHT22;49183;51.380;0.098;2023-10-09T16:01:25;21.40;76.90
63094;DHT22;49183;51.380;0.098;2023-10-09T16:03:54;21.30;77.10
63094;DHT22;49183;51.380;0.098;2023-10-09T16:06:22;21.30;77.40
63094;DHT22;49183;51.380;0.098;2023-10-09T16:08:54;21.30;77.50
63094;DHT22;49183;51.380;0.098;2023-10-09T16:11:23;21.30;77.50
63094;DHT22;49183;51.380;0.098;2023-10-09T16:13:52;21.30;77.40
63094;DHT22;49183;51.380;0.098;2023-10-09T16:16:27;21.30;77.40
63094;DHT22;49183;51.380;0.098;2023-10-09T16:18:59;21.30;77.40
63094;DHT22;49183;51.380;0.098;2023-10-09T16:21:27;21.30;77.40
63094;DHT22;49183;51.380;0.098;2023-10-09T16:23:55;21.30;77.50
63094;DHT22;49183;51.380;0.098;2023-10-09T16:26:23;21.20;77.60
63094;DHT22;49183;51.380;0.098;2023-10-09T16:28:52;21.20;77.60
63094;DHT22;49183;51.380;0.098;2023-10-09T16:31:20;21.10;77.60
63094;DHT22;49183;51.380;0.098;2023-10-09T16:33:48;21.10;77.80
63094;DHT22;49183;51.380;0.098;2023-10-09T16:36:16;21.00;78.00
63094;DHT22;49183;51.380;0.098;2023-10-09T16:38:45;20.90;78.10